Time;durP1;ratioP1;P1;durP2;ratioP2;P2;SDS_P1;SDS_P2;PMS_P1;PMS_P2;Temp;Humidity;BMP_temperature;BMP_pressure;BME280_temperature;BME280_humidity;BME280_pressure;Samples;Min_cycle;Max_cycle;Signal;HPM_P1;HPM_P2
2021/09/03 00:00:17;;;;;;;10.03;5.23;;;;;;;13.47;77.33;101124.83;1478181;87;22306;-87
2021/09/03 00:02:45;;;;;;;10.53;5.87;;;;;;;13.47;77.15;101129.32;1482490;88;22520;-87
2021/09/03 00:05:20;;;;;;;8.50;5.37;;;;;;;13.46;77.05;101122.30;1489605;88;21448;-87
2021/09/03 00:07:48;;;;;;;9.57;6.10;;;;;;;13.44;76.89;101118.98;1492953;87;21338;-87
2021/09/03 00:10:18;;;;;;;9.77;5.47;;;;;;;13.41;77.25;101123.27;1481587;88;21426;-87
2021/09/03 00:12:45;;;;;;;10.75;5.55;;;;;;;13.41;77.05;101121.44;1483766;88;21821;-87
2021/09/03 00:15:15;;;;;;;9.20;5.67;;;;;;;13.44;77.12;101118.98;1479658;88;21477;-87
2021/09/03 00:17:42;;;;;;;10.03;6.00;;;;;;;13.46;77.19;101125.80;1473500;87;21495;-87
2021/09/03 00:20:12;;;;;;;9.57;6.20;;;;;;;13.48;76.98;101125.66;1487199;88;22461;-87
2021/09/03 00:22:39;;;;;;;10.53;6.70;;;;;;;13.45;77.29;101121.48;1469961;88;21521;-87
2021/09/03 00:25:07;;;;;;;9.03;6.70;;;;;;;13.44;77.63;101125.13;1494060;88;21648;-87
2021/09/03 00:27:35;;;;;;;11.27;5.57;;;;;;;13.42;77.49;101124.44;1485701;87;21834;-88
2021/09/03 00:30:01;;;;;;;10.30;5.30;;;;;;;13.38;78.08;101120.41;1485175;88;21441;-89
2021/09/03 00:32:27;;;;;;;7.50;5.67;;;;;;;13.36;78.35;101119.72;1481829;87;21514;-88
2021/09/03 00:34:53;;;;;;;9.00;5.87;;;;;;;13.37;78.04;101121.87;1477040;88;21345;-89
2021/09/03 00:37:20;;;;;;;10.17;5.43;;;;;;;13.38;77.92;101123.07;1477725;87;21456;-90
2021/09/03 00:39:46;;;;;;;11.20;5.13;;;;;;;13.41;77.94;101115.30;1467206;88;22379;-87
2021/09/03 00:42:14;;;;;;;7.50;5.03;;;;;;;13.41;77.90;101118.78;1487915;88;21661;-87
2021/09/03 00:44:40;;;;;;;8.90;5.70;;;;;;;13.39;78.12;101118.09;1468149;88;22921;-88
2021/09/03 00:47:06;;;;;;;7.43;5.00;;;;;;;13.39;77.80;101115.43;1483596;87;21507;-88
2021/09/03 00:49:33;;;;;;;10.80;5.57;;;;;;;13.37;78.12;101112.08;1487033;88;21499;-87
2021/09/03 00:52:04;;;;;;;10.07;5.63;;;;;;;13.39;77.97;101118.09;1489020;88;21456;-88
2021/09/03 00:54:31;;;;;;;9.25;4.42;;;;;;;13.40;77.98;101122.41;1481629;87;21463;-88
2021/09/03 00:56:58;;;;;;;8.93;4.37;;;;;;;13.42;78.21;101118.28;1482714;87;21456;-89
2021/09/03 00:59:24;;;;;;;10.20;6.00;;;;;;;13.38;79.35;101116.43;1483778;87;21521;-89
2021/09/03 01:01:50;;;;;;;7.93;5.20;;;;;;;13.35;79.37;101112.73;1482957;88;21463;-89
2021/09/03 01:04:17;;;;;;;12.70;4.93;;;;;;;13.32;79.50;101109.02;1485241;87;23517;-88
2021/09/03 01:06:43;;;;;;;9.63;5.47;;;;;;;13.27;79.77;101104.66;1479876;87;21426;-88
2021/09/03 01:09:10;;;;;;;7.23;3.80;;;;;;;13.24;78.75;101108.92;1476764;87;21678;-88
2021/09/03 01:11:36;;;;;;;9.00;5.00;;;;;;;13.19;79.24;101109.35;1494056;87;22878;-88
2021/09/03 01:14:03;;;;;;;9.97;5.43;;;;;;;13.17;78.60;101104.66;1479036;87;21448;-88
2021/09/03 01:16:29;;;;;;;8.43;5.17;;;;;;;13.14;78.59;101108.12;1471599;87;22408;-88
2021/09/03 01:18:55;;;;;;;7.53;5.10;;;;;;;13.05;79.21;101105.36;1491006;87;21375;-88
2021/09/03 01:21:21;;;;;;;9.67;4.97;;;;;;;13.03;78.70;101107.81;1478350;87;21484;-88
2021/09/03 01:23:48;;;;;;;10.27;5.03;;;;;;;12.96;78.83;101111.56;1480413;87;21448;-88
2021/09/03 01:26:14;;;;;;;10.77;4.83;;;;;;;12.89;79.08;101107.83;1491425;88;21419;-86
2021/09/03 01:28:41;;;;;;;7.53;4.47;;;;;;;12.83;79.87;101108.38;1483462;88;21412;-86
2021/09/03 01:31:07;;;;;;;9.17;4.10;;;;;;;12.79;79.22;101108.34;1468686;88;21404;-87
2021/09/03 01:33:33;;;;;;;6.90;4.73;;;;;;;12.76;79.49;101100.66;1483529;87;21433;-87
2021/09/03 01:36:00;;;;;;;7.20;5.00;;;;;;;12.72;79.54;101105.94;1471802;88;21610;-87
2021/09/03 01:38:26;;;;;;;10.83;5.10;;;;;;;12.68;79.08;101097.39;1488746;87;23544;-87
2021/09/03 01:40:52;;;;;;;7.27;5.37;;;;;;;12.63;78.86;101095.20;1487486;87;21477;-87
2021/09/03 01:43:19;;;;;;;11.40;5.50;;;;;;;12.59;79.24;101095.12;1477839;87;22549;-87
2021/09/03 01:45:45;;;;;;;7.40;4.67;;;;;;;12.54;78.79;101097.36;1472419;87;21493;-88
2021/09/03 01:48:11;;;;;;;7.07;4.40;;;;;;;12.48;79.55;101093.95;1468010;88;22410;-87
2021/09/03 01:50:37;;;;;;;7.63;4.40;;;;;;;12.47;79.32;101097.61;1471548;87;22447;-87
2021/09/03 01:53:04;;;;;;;12.03;4.30;;;;;;;12.41;80.43;101096.86;1470620;87;21472;-88
2021/09/03 01:55:30;;;;;;;11.70;5.47;;;;;;;12.37;79.89;101092.80;1468189;87;21463;-88
2021/09/03 01:57:58;;;;;;;5.00;3.93;;;;;;;12.34;79.57;101089.09;1473942;87;21610;-87
2021/09/03 02:00:26;;;;;;;12.20;5.37;;;;;;;12.30;79.61;101094.36;1475467;87;21538;-86
2021/09/03 02:02:52;;;;;;;8.33;4.90;;;;;;;12.26;79.47;101092.98;1470004;87;21601;-86
2021/09/03 02:05:18;;;;;;;11.00;4.50;;;;;;;12.19;79.46;101096.17;1486991;87;21455;-86
2021/09/03 02:07:45;;;;;;;7.33;4.73;;;;;;;12.13;79.82;101098.08;1476955;88;21670;-86
2021/09/03 02:10:12;;;;;;;10.30;4.77;;;;;;;12.08;79.82;101095.00;1482569;88;23367;-87
2021/09/03 02:12:38;;;;;;;8.23;4.40;;;;;;;12.07;79.68;101093.83;1470385;87;21636;-88
2021/09/03 02:15:07;;;;;;;7.37;3.93;;;;;;;12.06;80.06;101087.69;1474781;87;22376;-88
2021/09/03 02:17:33;;;;;;;7.27;4.70;;;;;;;12.03;80.64;101082.67;1475177;87;22358;-87
2021/09/03 02:19:59;;;;;;;9.97;4.93;;;;;;;12.02;80.17;101084.13;1461024;88;21642;-87
2021/09/03 02:22:26;;;;;;;8.30;4.47;;;;;;;11.95;80.57;101082.53;1478772;88;21471;-88
2021/09/03 02:24:52;;;;;;;7.80;4.83;;;;;;;11.90;80.53;101079.45;1476365;88;22359;-88
2021/09/03 02:27:18;;;;;;;10.77;5.67;;;;;;;11.89;80.08;101076.47;1470074;88;21571;-87
2021/09/03 02:29:44;;;;;;;6.67;4.53;;;;;;;11.89;79.96;101077.80;1474415;87;21382;-87
2021/09/03 02:32:13;;;;;;;8.37;4.53;;;;;;;11.91;79.79;101073.16;1482325;88;22410;-88
2021/09/03 02:34:38;;;;;;;7.33;5.07;;;;;;;11.94;79.77;101074.23;1475255;87;22423;-87
2021/09/03 02:37:05;;;;;;;7.63;5.50;;;;;;;11.93;79.61;101069.39;1474043;87;21447;-88
2021/09/03 02:39:31;;;;;;;7.43;4.93;;;;;;;11.92;79.74;101069.55;1471960;87;21707;-88
2021/09/03 02:41:57;;;;;;;6.40;5.00;;;;;;;11.89;79.51;101064.53;1472433;87;21553;-88
2021/09/03 02:44:23;;;;;;;8.83;5.43;;;;;;;11.85;79.36;101063.95;1480615;88;21663;-87
2021/09/03 02:46:49;;;;;;;7.17;4.10;;;;;;;11.81;79.51;101069.17;1481935;87;21657;-87
2021/09/03 02:49:15;;;;;;;8.50;4.17;;;;;;;11.79;79.67;101063.66;1481887;87;21930;-88
2021/09/03 02:51:41;;;;;;;7.57;4.57;;;;;;;11.77;79.70;101062.94;1493255;87;22335;-87
2021/09/03 02:54:08;;;;;;;7.03;4.20;;;;;;;11.75;79.69;101074.54;1488392;87;21500;-90
2021/09/03 02:56:34;;;;;;;8.57;5.30;;;;;;;11.72;79.61;101068.19;1478594;87;21508;-87
2021/09/03 02:59:00;;;;;;;8.27;6.30;;;;;;;11.67;79.91;101067.77;1489953;87;22387;-87
2021/09/03 03:01:27;;;;;;;12.80;5.50;;;;;;;11.63;79.73;101065.05;1485636;87;21455;-87
2021/09/03 03:03:53;;;;;;;7.40;5.07;;;;;;;11.59;79.53;101058.34;1491925;88;21434;-87
2021/09/03 03:06:19;;;;;;;6.90;4.37;;;;;;;11.55;79.70;101062.25;1465353;88;22327;-87
2021/09/03 03:08:45;;;;;;;7.80;4.07;;;;;;;11.50;79.94;101055.20;1480884;87;21492;-88
2021/09/03 03:11:11;;;;;;;8.43;4.80;;;;;;;11.48;80.18;101061.15;1478332;87;21426;-87
2021/09/03 03:13:38;;;;;;;10.80;6.00;;;;;;;11.47;80.02;101059.45;1482643;88;21485;-86
2021/09/03 03:16:04;;;;;;;12.30;5.87;;;;;;;11.44;81.27;101054.42;1470307;88;21522;-87
2021/09/03 03:18:31;;;;;;;16.90;6.37;;;;;;;11.43;80.23;101056.25;1478435;87;21799;-90
2021/09/03 03:20:57;;;;;;;11.27;4.73;;;;;;;11.39;80.60;101056.16;1482803;88;22454;-86
2021/09/03 03:23:23;;;;;;;14.20;6.07;;;;;;;11.35;80.73;101060.56;1491706;88;21441;-88
2021/09/03 03:25:49;;;;;;;12.67;5.77;;;;;;;11.29;81.39;101058.80;1487251;87;22348;-87
2021/09/03 03:28:16;;;;;;;13.20;5.20;;;;;;;11.26;81.05;101053.77;1487705;88;21412;-87
2021/09/03 03:30:42;;;;;;;8.60;5.40;;;;;;;11.27;80.88;101055.44;1483102;87;22940;-87
2021/09/03 03:33:09;;;;;;;10.47;5.43;;;;;;;11.29;81.41;101053.50;1496124;87;21618;-88
2021/09/03 03:35:35;;;;;;;14.57;6.60;;;;;;;11.30;80.96;101055.16;1477129;87;21477;-87
2021/09/03 03:38:01;;;;;;;12.87;6.70;;;;;;;11.29;80.50;101057.48;1489967;87;21427;-90
2021/09/03 03:40:27;;;;;;;14.53;6.57;;;;;;;11.25;80.54;101055.25;1482448;87;21552;-88
2021/09/03 03:42:54;;;;;;;25.00;7.83;;;;;;;11.21;80.80;101059.96;1479937;88;21581;-88
2021/09/03 03:45:20;;;;;;;16.60;7.83;;;;;;;11.19;80.75;101061.94;1487377;88;21485;-88
2021/09/03 03:47:46;;;;;;;13.37;6.00;;;;;;;11.18;80.74;101058.91;1476218;88;22365;-88
2021/09/03 03:50:13;;;;;;;14.47;5.63;;;;;;;11.17;80.65;101058.58;1486018;88;21475;-89
2021/09/03 03:52:39;;;;;;;14.50;6.17;;;;;;;11.19;80.60;101061.07;1487580;87;21434;-87
2021/09/03 03:55:06;;;;;;;13.83;6.23;;;;;;;11.18;80.57;101052.29;1479918;87;21404;-87
2021/09/03 03:57:33;;;;;;;14.83;6.63;;;;;;;11.17;80.77;101049.30;1474500;88;21396;-87
2021/09/03 03:59:59;;;;;;;9.63;6.03;;;;;;;11.12;81.08;101044.89;1469271;88;22431;-87
2021/09/03 04:02:25;;;;;;;8.10;5.93;;;;;;;11.09;80.91;101047.81;1468457;88;21425;-87
2021/09/03 04:04:51;;;;;;;7.60;5.27;;;;;;;11.05;81.04;101045.09;1462011;87;22345;-86
2021/09/03 04:07:17;;;;;;;11.33;5.83;;;;;;;11.03;81.24;101044.39;1475859;87;21403;-86
2021/09/03 04:09:44;;;;;;;12.30;5.60;;;;;;;11.04;81.26;101047.37;1482158;88;22380;-86
2021/09/03 04:12:10;;;;;;;10.53;6.20;;;;;;;11.04;80.94;101050.86;1478586;87;21541;-87
2021/09/03 04:14:37;;;;;;;14.67;7.07;;;;;;;11.04;80.89;101042.08;1482299;87;22358;-86
2021/09/03 04:17:03;;;;;;;16.33;8.07;;;;;;;11.11;80.82;101051.17;1472809;87;21633;-86
2021/09/03 04:19:30;;;;;;;23.37;8.07;;;;;;;11.12;80.91;101049.36;1476402;88;22454;-86
2021/09/03 04:21:56;;;;;;;19.03;8.67;;;;;;;11.10;81.84;101053.45;1477449;88;21418;-87
2021/09/03 04:24:22;;;;;;;13.03;6.50;;;;;;;11.09;82.21;101053.11;1489332;87;21551;-87
2021/09/03 04:26:48;;;;;;;13.60;7.60;;;;;;;11.07;83.02;101055.05;1478130;88;21522;-86
2021/09/03 04:29:14;;;;;;;11.63;5.57;;;;;;;11.11;82.51;101055.15;1471325;87;21426;-87
2021/09/03 04:31:40;;;;;;;11.30;5.00;;;;;;;11.12;83.34;101052.84;1478617;88;21441;-87
2021/09/03 04:34:06;;;;;;;11.90;6.80;;;;;;;11.13;82.88;101053.17;1483603;88;21625;-87
2021/09/03 04:36:32;;;;;;;10.93;5.83;;;;;;;11.17;82.80;101051.12;1472692;87;22292;-87
2021/09/03 04:38:58;;;;;;;18.27;6.80;;;;;;;11.17;82.78;101044.49;1476116;88;21359;-87
2021/09/03 04:41:25;;;;;;;9.67;6.00;;;;;;;11.21;82.77;101048.53;1488204;88;21588;-89
2021/09/03 04:43:51;;;;;;;11.23;6.37;;;;;;;11.25;82.67;101049.95;1442471;88;21516;-87
2021/09/03 04:46:18;;;;;;;14.67;6.90;;;;;;;11.32;82.73;101052.88;1447111;90;21478;-89
2021/09/03 04:48:44;;;;;;;13.17;6.60;;;;;;;11.41;83.07;101057.36;1448786;90;22336;-87
2021/09/03 04:51:10;;;;;;;14.87;6.87;;;;;;;11.52;83.21;101058.06;1453040;90;21456;-82
2021/09/03 04:53:36;;;;;;;12.90;6.23;;;;;;;11.68;82.84;101058.86;1441707;90;21955;-86
2021/09/03 04:56:03;;;;;;;17.43;7.17;;;;;;;11.83;82.61;101055.28;1466699;88;21435;-87
2021/09/03 04:58:29;;;;;;;16.97;7.73;;;;;;;11.99;82.29;101062.69;1463499;88;21464;-86
2021/09/03 05:00:55;;;;;;;23.07;7.70;;;;;;;12.12;81.70;101060.59;1468864;88;21544;-86
2021/09/03 05:03:21;;;;;;;13.57;7.60;;;;;;;12.24;81.46;101057.78;1477974;88;22336;-86
2021/09/03 05:05:48;;;;;;;15.80;7.43;;;;;;;12.37;81.17;101057.82;1462100;87;21449;-86
2021/09/03 05:08:14;;;;;;;13.87;8.77;;;;;;;12.51;80.84;101057.83;1462226;88;21888;-86
2021/09/03 05:10:40;;;;;;;18.23;8.10;;;;;;;12.67;80.67;101067.02;1464320;88;22322;-86
2021/09/03 05:13:07;;;;;;;18.10;8.33;;;;;;;12.80;80.19;101059.53;1474705;87;21545;-87
2021/09/03 05:15:38;;;;;;;18.80;9.00;;;;;;;12.91;79.77;101056.69;1465837;87;21426;-87
2021/09/03 05:18:04;;;;;;;15.67;8.70;;;;;;;13.03;79.36;101059.52;1466813;88;21441;-87
2021/09/03 05:20:31;;;;;;;16.50;7.97;;;;;;;13.17;79.00;101058.66;1477128;87;21607;-84
2021/09/03 05:22:57;;;;;;;22.97;7.63;;;;;;;13.29;78.68;101061.00;1459782;87;21486;-84
2021/09/03 05:25:24;;;;;;;14.43;7.20;;;;;;;13.42;78.53;101063.28;1458956;90;21412;-84
2021/09/03 05:27:51;;;;;;;14.47;7.67;;;;;;;13.57;78.44;101057.44;1459967;90;22433;-84
2021/09/03 05:30:17;;;;;;;16.17;6.80;;;;;;;13.70;78.25;101051.26;1458694;90;22440;-86
2021/09/03 05:32:44;;;;;;;13.73;7.23;;;;;;;13.82;77.94;101054.02;1443599;90;21412;-85
2021/09/03 05:35:11;;;;;;;16.70;7.93;;;;;;;13.89;77.36;101057.72;1452764;90;21620;-84
2021/09/03 05:37:38;;;;;;;13.07;7.47;;;;;;;13.95;77.04;101057.60;1459098;88;21493;-83
2021/09/03 05:40:07;;;;;;;16.43;7.20;;;;;;;14.03;76.82;101058.17;1459506;88;21472;-84
2021/09/03 05:42:33;;;;;;;14.73;7.97;;;;;;;14.14;76.65;101065.91;1456369;90;21464;-84
2021/09/03 05:45:01;;;;;;;19.27;8.13;;;;;;;14.26;76.39;101054.00;1447763;89;21523;-85
2021/09/03 05:47:27;;;;;;;15.20;8.30;;;;;;;14.40;76.49;101053.93;1454354;89;21516;-85
2021/09/03 05:49:54;;;;;;;17.33;7.43;;;;;;;14.54;76.26;101046.72;1444176;90;22469;-85
2021/09/03 05:52:20;;;;;;;12.27;7.17;;;;;;;14.76;76.16;101060.00;1455935;90;21508;-85
2021/09/03 05:54:46;;;;;;;12.07;6.53;;;;;;;14.96;75.09;101055.73;1460009;90;22248;-85
2021/09/03 05:57:12;;;;;;;16.53;7.30;;;;;;;15.15;75.00;101048.80;1454937;88;21575;-85
2021/09/03 05:59:39;;;;;;;12.43;6.90;;;;;;;15.31;74.19;101046.19;1457216;88;22432;-85
2021/09/03 06:02:07;;;;;;;16.57;7.70;;;;;;;15.44;73.71;101047.03;1459595;87;21538;-84
2021/09/03 06:04:33;;;;;;;13.93;8.07;;;;;;;15.56;73.92;101044.88;1459557;88;22309;-84
2021/09/03 06:06:59;;;;;;;16.20;7.90;;;;;;;15.72;73.70;101051.60;1459729;87;21508;-85
2021/09/03 06:09:25;;;;;;;16.27;7.97;;;;;;;15.77;73.05;101051.95;1471671;88;21687;-85
2021/09/03 06:11:52;;;;;;;13.03;7.80;;;;;;;15.86;73.25;101054.63;1455649;88;21456;-86
2021/09/03 06:14:19;;;;;;;14.47;7.20;;;;;;;15.95;73.44;101061.11;1464921;87;21766;-86
2021/09/03 06:16:45;;;;;;;21.93;8.13;;;;;;;16.07;73.11;101058.11;1467121;87;23657;-86
2021/09/03 06:19:11;;;;;;;13.00;7.67;;;;;;;16.12;72.29;101055.27;1453851;88;21509;-85
2021/09/03 06:21:38;;;;;;;19.20;7.40;;;;;;;16.30;72.23;101047.05;1456616;88;21713;-86
2021/09/03 06:24:27;;;;;;;10.67;7.30;;;;;;;16.46;71.92;101051.55;1468384;88;21390;-85
2021/09/03 06:26:32;;;;;;;19.37;8.17;;;;;;;16.55;70.86;101047.84;1457342;88;21404;-85
2021/09/03 06:28:58;;;;;;;23.43;8.70;;;;;;;16.64;69.47;101052.14;1457807;88;22608;-84
2021/09/03 06:31:25;;;;;;;17.40;7.77;;;;;;;16.75;68.92;101048.78;1471676;87;21390;-84
2021/09/03 06:33:51;;;;;;;17.53;7.13;;;;;;;16.90;68.79;101043.89;1483099;88;21478;-85
2021/09/03 06:36:17;;;;;;;11.67;7.57;;;;;;;17.07;68.26;101047.83;1461295;87;22513;-84
2021/09/03 06:38:43;;;;;;;12.83;8.17;;;;;;;17.21;68.05;101047.59;1464126;88;21441;-85
2021/09/03 06:41:09;;;;;;;14.97;8.27;;;;;;;17.23;66.47;101051.73;1467866;87;21501;-85
2021/09/03 06:43:35;;;;;;;20.27;8.27;;;;;;;17.32;66.51;101048.03;1457701;88;21441;-85
2021/09/03 06:46:01;;;;;;;16.63;6.30;;;;;;;17.45;66.40;101046.09;1454477;89;22469;-84
2021/09/03 06:48:27;;;;;;;11.93;6.63;;;;;;;17.63;66.32;101048.98;1457617;90;21509;-83
2021/09/03 06:50:53;;;;;;;11.60;7.37;;;;;;;17.76;65.47;101053.24;1446581;89;21580;-84
2021/09/03 06:53:20;;;;;;;10.73;6.93;;;;;;;17.90;65.42;101058.36;1454714;89;21486;-82
2021/09/03 06:55:46;;;;;;;17.30;7.33;;;;;;;18.03;64.27;101067.42;1441667;90;21449;-84
2021/09/03 06:58:12;;;;;;;12.93;6.90;;;;;;;18.18;64.32;101063.94;1453646;88;22290;-84
2021/09/03 07:00:39;;;;;;;10.67;6.73;;;;;;;18.34;63.92;101065.13;1452418;88;21754;-84
2021/09/03 07:03:05;;;;;;;10.43;6.33;;;;;;;18.60;63.87;101061.18;1473695;88;21441;-84
2021/09/03 07:05:31;;;;;;;10.53;6.05;;;;;;;18.78;62.69;101056.29;1463432;88;21448;-84
2021/09/03 07:07:58;;;;;;;9.23;6.08;;;;;;;18.99;62.47;101054.69;1449625;88;21506;-84
2021/09/03 07:10:24;;;;;;;13.93;6.20;;;;;;;19.10;61.78;101055.55;1442839;90;21426;-84
2021/09/03 07:12:50;;;;;;;64.90;8.43;;;;;;;19.16;60.08;101053.45;1449526;90;21589;-84
2021/09/03 07:15:17;;;;;;;15.00;6.30;;;;;;;19.31;60.90;101050.76;1460101;90;21524;-84
2021/09/03 07:17:43;;;;;;;15.18;6.50;;;;;;;19.39;59.94;101052.81;1453967;90;21346;-84
2021/09/03 07:20:12;;;;;;;9.85;5.58;;;;;;;19.54;59.35;101057.30;1422081;88;21449;-84
2021/09/03 07:22:38;;;;;;;8.10;5.37;;;;;;;19.63;58.88;101053.45;1458587;88;22774;-84
2021/09/03 07:25:05;;;;;;;35.38;5.85;;;;;;;19.72;59.24;101055.53;1452473;88;21478;-83
2021/09/03 07:27:31;;;;;;;10.85;5.50;;;;;;;19.74;57.90;101048.95;1459491;88;21411;-84
2021/09/03 07:29:57;;;;;;;9.58;6.80;;;;;;;19.75;58.04;101055.97;1459194;87;21464;-83
2021/09/03 07:32:23;;;;;;;17.02;6.62;;;;;;;19.80;57.66;101054.89;1448592;90;21368;-84
2021/09/03 07:34:49;;;;;;;19.23;6.28;;;;;;;19.84;57.59;101049.95;1457136;90;21383;-84
2021/09/03 07:37:15;;;;;;;10.18;5.78;;;;;;;19.85;57.19;101050.26;1446733;90;21514;-84
2021/09/03 07:39:42;;;;;;;13.68;6.78;;;;;;;19.93;55.94;101056.02;1453465;90;22426;-88
2021/09/03 07:42:08;;;;;;;12.90;6.33;;;;;;;19.98;56.15;101053.59;1464248;88;21412;-84
2021/09/03 07:44:34;;;;;;;19.02;6.72;;;;;;;19.95;55.30;101049.95;1479108;87;21412;-85
2021/09/03 07:47:00;;;;;;;6.17;5.35;;;;;;;20.02;55.34;101058.88;1488568;88;21448;-85
2021/09/03 07:49:26;;;;;;;7.30;5.75;;;;;;;20.16;55.35;101054.45;1485069;87;21450;-84
2021/09/03 07:51:52;;;;;;;100.87;13.43;;;;;;;20.27;54.81;101055.25;1484827;88;21375;-85
2021/09/03 07:54:18;;;;;;;14.33;6.65;;;;;;;20.45;55.10;101046.16;1482936;88;21477;-85
2021/09/03 07:56:45;;;;;;;8.45;5.75;;;;;;;20.62;54.36;101044.02;1471595;88;21462;-85
2021/09/03 07:59:11;;;;;;;7.30;5.50;;;;;;;20.71;54.02;101045.54;1481704;88;21419;-85
2021/09/03 08:01:37;;;;;;;12.55;5.70;;;;;;;20.90;53.20;101044.47;1481298;87;21507;-85
2021/09/03 08:04:04;;;;;;;10.63;5.22;;;;;;;21.11;53.80;101038.95;1481561;88;22447;-85
2021/09/03 08:06:30;;;;;;;10.18;5.47;;;;;;;21.35;53.10;101038.94;1461338;88;22409;-85
2021/09/03 08:08:56;;;;;;;8.68;5.03;;;;;;;21.50;52.99;101038.78;1476798;87;21441;-85
2021/09/03 08:11:22;;;;;;;7.92;5.58;;;;;;;21.48;51.27;101031.94;1483217;87;22224;-85
2021/09/03 08:13:49;;;;;;;49.18;7.00;;;;;;;21.37;50.53;101028.80;1473008;88;22534;-87
2021/09/03 08:16:15;;;;;;;9.40;5.50;;;;;;;21.37;50.98;101030.66;1483189;87;21478;-86
2021/09/03 08:18:42;;;;;;;13.25;9.70;;;;;;;21.43;50.72;101027.67;1483886;87;21463;-85
2021/09/03 08:21:08;;;;;;;8.23;6.28;;;;;;;21.39;50.25;101023.22;1481202;88;22583;-85
2021/09/03 08:23:35;;;;;;;20.17;10.13;;;;;;;21.43;50.89;101023.64;1480137;88;21411;-84
2021/09/03 08:26:01;;;;;;;8.28;6.17;;;;;;;21.43;48.24;101026.33;1502536;87;21603;-87
2021/09/03 08:28:28;;;;;;;7.87;4.97;;;;;;;21.49;49.62;101026.85;1492878;88;21448;-85
2021/09/03 08:30:54;;;;;;;15.48;7.22;;;;;;;21.38;48.92;101020.23;1479927;88;21544;-85
2021/09/03 08:33:20;;;;;;;11.85;6.83;;;;;;;21.52;49.66;101025.95;1482502;87;21427;-86
2021/09/03 08:35:46;;;;;;;11.73;5.90;;;;;;;21.52;49.66;101025.95;1472032;87;21526;-86
2021/09/03 08:38:12;;;;;;;12.65;6.10;;;;;;;21.68;49.21;101029.27;1486684;87;22063;-85
2021/09/03 08:40:39;;;;;;;7.80;5.30;;;;;;;21.75;49.61;101027.39;1483238;87;21485;-86
2021/09/03 08:43:05;;;;;;;6.85;4.30;;;;;;;21.83;48.53;101015.89;1484167;87;21426;-85
2021/09/03 08:46:08;;;;;;;17.95;10.68;;;;;;;21.98;47.77;101021.59;1476766;88;21597;-86
2021/09/03 08:48:35;;;;;;;10.00;6.17;;;;;;;21.98;47.77;100983.86;1471886;88;22370;-86
2021/09/03 08:51:02;;;;;;;7.55;5.22;;;;;;;22.05;48.95;100995.47;1469891;87;22380;-86
2021/09/03 08:53:29;;;;;;;10.65;5.28;;;;;;;22.15;47.10;101017.95;1481476;87;21977;-87
2021/09/03 08:55:55;;;;;;;6.37;4.78;;;;;;;22.23;46.94;101011.02;1473372;87;21493;-87
2021/09/03 08:58:22;;;;;;;9.20;4.75;;;;;;;22.24;46.09;101005.44;1464036;88;22358;-87
2021/09/03 09:01:10;;;;;;;11.05;5.10;;;;;;;22.32;45.89;100994.92;1473904;87;21559;-87
2021/09/03 09:03:44;;;;;;;9.50;4.55;;;;;;;22.43;45.52;100989.41;1475588;87;22432;-87
2021/09/03 09:06:20;;;;;;;4.78;4.15;;;;;;;22.59;46.25;100988.12;1474374;87;21464;-87
2021/09/03 09:08:56;;;;;;;9.68;5.35;;;;;;;22.75;46.34;100988.45;1471657;88;21441;-88
2021/09/03 09:11:29;;;;;;;5.78;4.22;;;;;;;22.73;45.42;100989.73;1469451;87;21448;-87
2021/09/03 09:14:03;;;;;;;6.78;4.58;;;;;;;22.89;45.29;100981.12;1456745;88;21589;-87
2021/09/03 09:16:31;;;;;;;7.05;4.12;;;;;;;23.02;44.59;100990.22;1476811;88;22472;-88
2021/09/03 09:19:03;;;;;;;7.83;4.50;;;;;;;23.26;44.75;100984.06;1473814;87;21449;-87
2021/09/03 09:21:34;;;;;;;10.50;4.20;;;;;;;23.34;43.71;100981.10;1480477;88;21545;-87
2021/09/03 09:24:13;;;;;;;8.23;4.37;;;;;;;23.46;43.60;100972.30;1475399;87;21471;-87
2021/09/03 09:26:56;;;;;;;9.18;3.87;;;;;;;23.58;43.55;100975.94;1470025;87;21361;-88
2021/09/03 09:29:33;;;;;;;8.75;3.45;;;;;;;23.82;42.62;100975.14;1467153;87;21486;-87
2021/09/03 09:32:09;;;;;;;5.70;4.40;;;;;;;23.72;41.54;100973.45;1474049;88;21486;-88
2021/09/03 09:34:38;;;;;;;6.22;3.95;;;;;;;23.62;42.52;100966.33;1465203;87;21471;-87
2021/09/03 09:37:12;;;;;;;5.33;3.92;;;;;;;23.37;42.11;100959.58;1476558;87;22307;-87
2021/09/03 09:39:57;;;;;;;10.20;4.72;;;;;;;23.17;43.08;100963.77;1478247;87;21602;-87
2021/09/03 09:42:30;;;;;;;5.37;4.25;;;;;;;23.16;43.84;100961.59;1479288;87;21574;-87
2021/09/03 09:45:11;;;;;;;4.62;3.75;;;;;;;23.40;43.69;100951.86;1475282;87;21582;-87
2021/09/03 09:47:40;;;;;;;5.20;4.10;;;;;;;23.61;43.90;100941.19;1462604;88;21464;-87
2021/09/03 09:50:35;;;;;;;5.10;3.75;;;;;;;23.75;42.08;100947.34;1454653;87;21770;-87
2021/09/03 09:53:11;;;;;;;7.58;4.20;;;;;;;23.95;42.74;100949.03;1462544;88;21662;-87
2021/09/03 09:55:39;;;;;;;15.38;7.85;;;;;;;24.19;41.65;100944.61;1454999;88;21641;-87
2021/09/03 09:58:06;;;;;;;28.07;4.97;;;;;;;24.32;41.01;100948.52;1461618;88;21479;-87
2021/09/03 10:00:37;;;;;;;4.45;3.00;;;;;;;24.16;38.33;100943.17;1465003;88;21557;-87
2021/09/03 10:03:04;;;;;;;7.60;3.62;;;;;;;24.17;38.86;100939.94;1463761;88;22216;-87
2021/09/03 10:05:31;;;;;;;11.45;4.15;;;;;;;24.41;39.74;100936.88;1459801;87;21471;-87
2021/09/03 10:07:59;;;;;;;6.58;3.47;;;;;;;24.45;39.98;100932.68;1453939;90;21651;-87
2021/09/03 10:10:26;;;;;;;17.05;3.15;;;;;;;24.63;39.97;100927.77;1461811;88;22431;-87
2021/09/03 10:12:53;;;;;;;42.35;4.70;;;;;;;24.59;39.37;100923.88;1464099;87;21578;-87
2021/09/03 10:15:19;;;;;;;4.53;2.92;;;;;;;24.76;39.38;100921.65;1464326;89;21404;-87
2021/09/03 10:17:47;;;;;;;8.03;3.10;;;;;;;24.85;38.61;100926.75;1455329;89;21471;-86
2021/09/03 10:20:15;;;;;;;3.47;2.83;;;;;;;24.92;39.19;100918.02;1450913;90;21478;-87
2021/09/03 10:22:46;;;;;;;10.55;3.65;;;;;;;24.54;37.95;100919.13;1454280;90;21426;-87
2021/09/03 10:25:13;;;;;;;3.92;2.42;;;;;;;24.59;38.79;100917.93;1452947;90;21406;-87
2021/09/03 10:27:40;;;;;;;5.25;2.40;;;;;;;24.52;38.14;100914.50;1451436;89;22462;-87
2021/09/03 10:30:16;;;;;;;4.87;2.65;;;;;;;24.20;38.86;100922.77;1459771;88;21420;-87
2021/09/03 10:32:42;;;;;;;4.53;3.08;;;;;;;24.00;39.93;100913.52;1470546;88;22342;-87
2021/09/03 10:35:18;;;;;;;5.17;3.80;;;;;;;24.02;39.97;100917.33;1465177;88;21449;-87
2021/09/03 10:37:45;;;;;;;5.30;3.75;;;;;;;23.97;40.89;100909.91;1472718;87;21515;-87
2021/09/03 10:40:20;;;;;;;8.60;3.02;;;;;;;24.14;40.84;100906.09;1462777;87;21538;-87
2021/09/03 10:42:51;;;;;;;5.92;3.15;;;;;;;24.41;39.46;100909.82;1474072;88;21659;-88
2021/09/03 10:45:39;;;;;;;3.60;2.62;;;;;;;24.65;39.14;100902.13;1475519;88;21434;-90
2021/09/03 10:48:13;;;;;;;8.30;3.00;;;;;;;24.89;39.42;100892.76;1473640;87;22455;-90
2021/09/03 10:50:51;;;;;;;6.67;4.10;;;;;;;25.23;38.56;100897.14;1467627;88;21523;-88
2021/09/03 10:53:34;;;;;;;4.03;2.90;;;;;;;25.53;38.84;100897.07;1466577;88;21894;-89
2021/09/03 10:56:18;;;;;;;4.67;3.10;;;;;;;25.76;38.25;100890.28;1466503;88;21478;-91
2021/09/03 10:59:00;;;;;;;5.90;3.87;;;;;;;25.72;37.93;100904.53;1464405;87;21500;-88
2021/09/03 11:01:30;;;;;;;43.78;5.95;;;;;;;25.41;38.24;100895.71;1466098;88;22261;-89
2021/09/03 11:04:15;;;;;;;6.35;4.72;;;;;;;24.82;37.83;100896.08;1474466;88;21615;-92
2021/09/03 11:06:55;;;;;;;19.98;10.90;;;;;;;24.67;37.53;100887.84;1457888;90;21427;-89
2021/09/03 11:09:29;;;;;;;3.98;3.58;;;;;;;24.32;38.60;100903.36;1460399;90;22996;-89
2021/09/03 11:12:07;;;;;;;5.33;3.20;;;;;;;23.94;39.30;100887.89;1449282;88;21652;-89
2021/09/03 11:14:34;;;;;;;40.38;6.05;;;;;;;23.76;40.50;100890.87;1461122;87;21627;-90
2021/09/03 11:17:08;;;;;;;5.50;3.70;;;;;;;23.52;40.61;100903.88;1452059;90;21575;-89
2021/09/03 11:19:44;;;;;;;5.92;3.50;;;;;;;23.34;41.09;100894.68;1464289;88;22255;-89
2021/09/03 11:22:20;;;;;;;145.95;30.75;;;;;;;23.19;41.77;100900.94;1485760;87;22388;-89